Lancaster, Wisconsin
Current Conditions -  °F | °C
As of 6:55 PM on Tuesday 21 Oct 2014 (Local Time) from KPVB Reporting Station
Clear Clear  
Wind Chill: 39°   Ceiling: Unl
Heat Index: 44°   Visibility: 10mi
Dew Point: 37°   Wind: 9mph
Humidity: 76%   Direction: 70°ENE
Pressure: 30.23"   Gusts: NA
Location:  42.85°N, 90.71°W
Report Text: KPVB 212355Z AUTO 07008KT 10SM CLR 07/03 A3023 RMK AO1 T00650026 10128 20065
Loading
Personal Weather Stations






























Interactive Weather Map
Tropical Storm Tracking
New forecast layout! Learn more

10-Day Weather Forecast

Advertisements
Track Severe Weather on mobile